Terminal Aerodrome Forecast
Issued by NWS Blacksburg, VA

Current Version | Previous Version | Graphics & Text | Print | Product List | Glossary On
Versions: 1 2 3 4 5 6 7 8 9 10 11 12 13 14 15 16 17 18 19 20 21 22 23 24 25 26 27 28 29 30 31 32 33 34 35 36
638
FTUS41 KRNK 010318 AAB
TAFBLF
TAF AMD
KBLF 010318Z 0103/0124 28011G21KT P6SM OVC028
      TEMPO 0103/0104 5SM -SHRA OVC018
     FM011200 27013G24KT P6SM OVC035
     FM011800 27011G20KT P6SM SCT040=

USA.gov is the U.S. government's official web portal to all federal, state and local government web resources and services.